sensor_id;sensor_type;location;lat;lon;timestamp;temperature;humidity
43414;DHT22;29013;49.676;8.606;2022-07-23T00:01:04;24.1;84.5
43414;DHT22;29013;49.676;8.606;2022-07-23T00:06:30;24.1;84.4
43414;DHT22;29013;49.676;8.606;2022-07-23T00:11:57;24.0;84.1
43414;DHT22;29013;49.676;8.606;2022-07-23T00:17:22;24.0;83.9
43414;DHT22;29013;49.676;8.606;2022-07-23T00:22:50;24.0;84.1
43414;DHT22;29013;49.676;8.606;2022-07-23T00:28:17;23.7;88.1
43414;DHT22;29013;49.676;8.606;2022-07-23T00:33:42;23.5;89.1
43414;DHT22;29013;49.676;8.606;2022-07-23T00:39:11;23.5;89.3
43414;DHT22;29013;49.676;8.606;2022-07-23T00:44:35;23.3;89.7
43414;DHT22;29013;49.676;8.606;2022-07-23T00:50:03;23.4;90.2
43414;DHT22;29013;49.676;8.606;2022-07-23T00:55:28;23.4;89.7
43414;DHT22;29013;49.676;8.606;2022-07-23T01:00:54;23.4;89.5
43414;DHT22;29013;49.676;8.606;2022-07-23T01:06:19;23.3;90.4
43414;DHT22;29013;49.676;8.606;2022-07-23T01:11:46;23.3;91.1
43414;DHT22;29013;49.676;8.606;2022-07-23T01:17:11;23.1;91.5
43414;DHT22;29013;49.676;8.606;2022-07-23T01:22:39;23.0;91.9
43414;DHT22;29013;49.676;8.606;2022-07-23T01:28:05;22.9;91.8
43414;DHT22;29013;49.676;8.606;2022-07-23T01:33:26;22.9;92.2
43414;DHT22;29013;49.676;8.606;2022-07-23T01:38:54;22.7;92.7
43414;DHT22;29013;49.676;8.606;2022-07-23T01:44:20;22.5;93.3
43414;DHT22;29013;49.676;8.606;2022-07-23T01:49:47;22.5;94.8
43414;DHT22;29013;49.676;8.606;2022-07-23T01:55:12;22.5;95.9
43414;DHT22;29013;49.676;8.606;2022-07-23T02:00:39;22.3;96.7
43414;DHT22;29013;49.676;8.606;2022-07-23T02:06:08;22.3;96.8
43414;DHT22;29013;49.676;8.606;2022-07-23T02:11:30;22.2;96.7
43414;DHT22;29013;49.676;8.606;2022-07-23T02:16:52;22.2;96.9
43414;DHT22;29013;49.676;8.606;2022-07-23T02:22:14;22.1;96.8
43414;DHT22;29013;49.676;8.606;2022-07-23T02:27:36;22.0;96.4
43414;DHT22;29013;49.676;8.606;2022-07-23T02:32:58;22.0;96.4
43414;DHT22;29013;49.676;8.606;2022-07-23T02:38:22;22.0;96.6
43414;DHT22;29013;49.676;8.606;2022-07-23T02:43:44;22.0;96.4
43414;DHT22;29013;49.676;8.606;2022-07-23T02:49:06;22.0;96.5
43414;DHT22;29013;49.676;8.606;2022-07-23T02:54:28;21.9;96.4
43414;DHT22;29013;49.676;8.606;2022-07-23T02:59:52;22.1;96.3
43414;DHT22;29013;49.676;8.606;2022-07-23T03:05:14;22.2;96.3
43414;DHT22;29013;49.676;8.606;2022-07-23T03:10:41;22.2;96.1
43414;DHT22;29013;49.676;8.606;2022-07-23T03:16:08;22.1;96.3
43414;DHT22;29013;49.676;8.606;2022-07-23T03:21:34;22.1;96.8
43414;DHT22;29013;49.676;8.606;2022-07-23T03:27:02;22.0;96.3
43414;DHT22;29013;49.676;8.606;2022-07-23T03:32:30;22.1;96.4
43414;DHT22;29013;49.676;8.606;2022-07-23T03:37:56;22.0;97.1
43414;DHT22;29013;49.676;8.606;2022-07-23T03:43:20;22.0;96.6
43414;DHT22;29013;49.676;8.606;2022-07-23T03:48:47;22.0;96.5
43414;DHT22;29013;49.676;8.606;2022-07-23T03:54:14;22.0;96.5
43414;DHT22;29013;49.676;8.606;2022-07-23T03:59:42;22.0;98.0
43414;DHT22;29013;49.676;8.606;2022-07-23T04:05:11;21.9;98.2
43414;DHT22;29013;49.676;8.606;2022-07-23T04:10:35;21.8;99.6
43414;DHT22;29013;49.676;8.606;2022-07-23T04:16:02;21.6;99.9
43414;DHT22;29013;49.676;8.606;2022-07-23T04:21:26;21.5;99.9
43414;DHT22;29013;49.676;8.606;2022-07-23T04:26:52;21.4;99.9
43414;DHT22;29013;49.676;8.606;2022-07-23T04:32:21;21.5;99.9
43414;DHT22;29013;49.676;8.606;2022-07-23T04:37:43;21.6;99.9
43414;DHT22;29013;49.676;8.606;2022-07-23T04:43:10;21.5;99.9
43414;DHT22;29013;49.676;8.606;2022-07-23T04:48:36;21.5;99.9
43414;DHT22;29013;49.676;8.606;2022-07-23T04:54:03;21.5;99.9
43414;DHT22;29013;49.676;8.606;2022-07-23T04:59:25;21.4;99.9
43414;DHT22;29013;49.676;8.606;2022-07-23T05:04:53;21.1;99.9
43414;DHT22;29013;49.676;8.606;2022-07-23T05:10:22;21.1;99.9
43414;DHT22;29013;49.676;8.606;2022-07-23T05:15:50;21.2;99.9
43414;DHT22;29013;49.676;8.606;2022-07-23T05:21:16;21.3;99.9
43414;DHT22;29013;49.676;8.606;2022-07-23T05:26:43;21.2;99.9
43414;DHT22;29013;49.676;8.606;2022-07-23T05:32:10;21.2;99.9
43414;DHT22;29013;49.676;8.606;2022-07-23T05:37:36;21.1;99.9
43414;DHT22;29013;49.676;8.606;2022-07-23T05:43:05;21.0;99.9
43414;DHT22;29013;49.676;8.606;2022-07-23T05:48:32;20.9;99.9
43414;DHT22;29013;49.676;8.606;2022-07-23T05:53:59;20.8;99.9
43414;DHT22;29013;49.676;8.606;2022-07-23T05:59:28;20.7;99.9
43414;DHT22;29013;49.676;8.606;2022-07-23T06:04:55;20.7;99.9
43414;DHT22;29013;49.676;8.606;2022-07-23T06:10:22;20.6;99.9
43414;DHT22;29013;49.676;8.606;2022-07-23T06:15:49;20.7;99.9
43414;DHT22;29013;49.676;8.606;2022-07-23T06:21:12;20.8;99.9
43414;DHT22;29013;49.676;8.606;2022-07-23T06:26:38;20.7;99.9
43414;DHT22;29013;49.676;8.606;2022-07-23T06:32:05;21.1;99.9
43414;DHT22;29013;49.676;8.606;2022-07-23T06:37:30;21.7;99.9
43414;DHT22;29013;49.676;8.606;2022-07-23T06:42:55;22.0;99.9
43414;DHT22;29013;49.676;8.606;2022-07-23T06:48:20;22.0;99.9
43414;DHT22;29013;49.676;8.606;2022-07-23T06:53:48;21.8;99.9
43414;DHT22;29013;49.676;8.606;2022-07-23T06:59:15;22.0;99.9
43414;DHT22;29013;49.676;8.606;2022-07-23T07:04:43;22.2;99.9
43414;DHT22;29013;49.676;8.606;2022-07-23T07:10:11;22.3;99.9
43414;DHT22;29013;49.676;8.606;2022-07-23T07:15:37;22.2;99.9
43414;DHT22;29013;49.676;8.606;2022-07-23T07:21:04;22.4;99.9
43414;DHT22;29013;49.676;8.606;2022-07-23T07:26:30;22.4;99.9
43414;DHT22;29013;49.676;8.606;2022-07-23T07:31:57;22.4;99.6
43414;DHT22;29013;49.676;8.606;2022-07-23T07:37:25;22.5;99.7
43414;DHT22;29013;49.676;8.606;2022-07-23T07:42:52;22.6;99.7
43414;DHT22;29013;49.676;8.606;2022-07-23T07:48:19;22.6;99.9
43414;DHT22;29013;49.676;8.606;2022-07-23T07:53:43;22.5;99.2
43414;DHT22;29013;49.676;8.606;2022-07-23T07:59:10;22.3;99.2
43414;DHT22;29013;49.676;8.606;2022-07-23T08:04:34;22.5;99.6
43414;DHT22;29013;49.676;8.606;2022-07-23T08:10:02;22.7;99.9
43414;DHT22;29013;49.676;8.606;2022-07-23T08:15:30;23.0;99.1
43414;DHT22;29013;49.676;8.606;2022-07-23T08:20:52;23.4;99.9
43414;DHT22;29013;49.676;8.606;2022-07-23T08:26:17;24.0;97.4
43414;DHT22;29013;49.676;8.606;2022-07-23T08:31:43;24.4;96.9
43414;DHT22;29013;49.676;8.606;2022-07-23T08:37:10;24.9;96.3
43414;DHT22;29013;49.676;8.606;2022-07-23T08:42:37;25.4;95.2
43414;DHT22;29013;49.676;8.606;2022-07-23T08:48:07;25.9;94.8
43414;DHT22;29013;49.676;8.606;2022-07-23T08:53:32;26.4;95.0
43414;DHT22;29013;49.676;8.606;2022-07-23T08:58:59;26.8;93.2
43414;DHT22;29013;49.676;8.606;2022-07-23T09:04:23;26.9;92.0
43414;DHT22;29013;49.676;8.606;2022-07-23T09:09:48;27.2;91.1
43414;DHT22;29013;49.676;8.606;2022-07-23T09:15:15;27.4;90.7
43414;DHT22;29013;49.676;8.606;2022-07-23T09:20:42;27.6;88.0
43414;DHT22;29013;49.676;8.606;2022-07-23T09:26:18;27.7;85.4
43414;DHT22;29013;49.676;8.606;2022-07-23T09:31:48;28.0;87.8
43414;DHT22;29013;49.676;8.606;2022-07-23T09:37:15;28.5;85.0
43414;DHT22;29013;49.676;8.606;2022-07-23T09:42:43;28.3;81.8
43414;DHT22;29013;49.676;8.606;2022-07-23T09:48:15;28.3;83.0
43414;DHT22;29013;49.676;8.606;2022-07-23T09:53:37;28.7;82.1
43414;DHT22;29013;49.676;8.606;2022-07-23T09:59:02;28.8;81.3
43414;DHT22;29013;49.676;8.606;2022-07-23T10:04:29;29.1;81.0
43414;DHT22;29013;49.676;8.606;2022-07-23T10:09:53;29.1;78.1
43414;DHT22;29013;49.676;8.606;2022-07-23T10:15:20;28.9;77.7
43414;DHT22;29013;49.676;8.606;2022-07-23T10:20:58;29.2;78.5
43414;DHT22;29013;49.676;8.606;2022-07-23T10:26:22;29.4;76.1
43414;DHT22;29013;49.676;8.606;2022-07-23T10:31:52;29.9;77.2
43414;DHT22;29013;49.676;8.606;2022-07-23T10:37:17;30.2;75.5
43414;DHT22;29013;49.676;8.606;2022-07-23T10:42:41;30.3;74.8
43414;DHT22;29013;49.676;8.606;2022-07-23T10:48:16;29.8;71.4
43414;DHT22;29013;49.676;8.606;2022-07-23T10:54:01;28.9;73.1
43414;DHT22;29013;49.676;8.606;2022-07-23T10:59:33;29.2;75.7
43414;DHT22;29013;49.676;8.606;2022-07-23T11:05:00;29.2;72.4
43414;DHT22;29013;49.676;8.606;2022-07-23T11:10:36;28.7;73.9
43414;DHT22;29013;49.676;8.606;2022-07-23T11:16:19;28.9;74.1
43414;DHT22;29013;49.676;8.606;2022-07-23T11:21:50;28.9;73.4
43414;DHT22;29013;49.676;8.606;2022-07-23T11:27:12;29.0;72.4
43414;DHT22;29013;49.676;8.606;2022-07-23T11:32:39;29.1;73.1
43414;DHT22;29013;49.676;8.606;2022-07-23T11:38:11;28.9;71.4
43414;DHT22;29013;49.676;8.606;2022-07-23T11:43:31;29.1;71.8
43414;DHT22;29013;49.676;8.606;2022-07-23T11:49:02;29.2;70.5
43414;DHT22;29013;49.676;8.606;2022-07-23T11:54:31;29.1;68.0
43414;DHT22;29013;49.676;8.606;2022-07-23T11:59:58;29.0;71.2
43414;DHT22;29013;49.676;8.606;2022-07-23T12:05:21;28.8;70.0
43414;DHT22;29013;49.676;8.606;2022-07-23T12:10:47;28.8;69.9
43414;DHT22;29013;49.676;8.606;2022-07-23T12:16:11;28.6;68.7
43414;DHT22;29013;49.676;8.606;2022-07-23T12:21:36;28.4;71.2
43414;DHT22;29013;49.676;8.606;2022-07-23T12:27:13;28.5;70.6
43414;DHT22;29013;49.676;8.606;2022-07-23T12:32:34;28.8;70.3
43414;DHT22;29013;49.676;8.606;2022-07-23T12:38:03;29.1;69.4
43414;DHT22;29013;49.676;8.606;2022-07-23T12:43:27;28.9;69.4
43414;DHT22;29013;49.676;8.606;2022-07-23T12:48:53;28.8;70.0
43414;DHT22;29013;49.676;8.606;2022-07-23T12:54:26;28.9;69.9
43414;DHT22;29013;49.676;8.606;2022-07-23T12:59:47;28.8;68.7
43414;DHT22;29013;49.676;8.606;2022-07-23T13:05:13;29.1;69.8
43414;DHT22;29013;49.676;8.606;2022-07-23T13:10:36;28.9;68.4
43414;DHT22;29013;49.676;8.606;2022-07-23T13:16:00;28.8;66.9
43414;DHT22;29013;49.676;8.606;2022-07-23T13:21:22;28.6;67.5
43414;DHT22;29013;49.676;8.606;2022-07-23T13:26:44;28.8;67.5
43414;DHT22;29013;49.676;8.606;2022-07-23T13:32:07;29.1;66.3
43414;DHT22;29013;49.676;8.606;2022-07-23T13:37:29;29.4;65.0
43414;DHT22;29013;49.676;8.606;2022-07-23T13:42:52;29.5;63.7
43414;DHT22;29013;49.676;8.606;2022-07-23T13:48:15;29.6;63.0
43414;DHT22;29013;49.676;8.606;2022-07-23T13:53:37;29.6;62.8
43414;DHT22;29013;49.676;8.606;2022-07-23T13:58:59;29.8;62.8
43414;DHT22;29013;49.676;8.606;2022-07-23T14:04:21;29.8;62.5
43414;DHT22;29013;49.676;8.606;2022-07-23T14:09:44;30.0;62.1
43414;DHT22;29013;49.676;8.606;2022-07-23T14:15:09;29.8;61.6
43414;DHT22;29013;49.676;8.606;2022-07-23T14:20:31;29.7;61.7
43414;DHT22;29013;49.676;8.606;2022-07-23T14:25:53;29.5;61.0
43414;DHT22;29013;49.676;8.606;2022-07-23T14:31:15;29.6;61.6
43414;DHT22;29013;49.676;8.606;2022-07-23T14:36:36;29.5;61.4
43414;DHT22;29013;49.676;8.606;2022-07-23T14:41:59;29.6;60.9
43414;DHT22;29013;49.676;8.606;2022-07-23T14:47:21;29.8;61.3
43414;DHT22;29013;49.676;8.606;2022-07-23T14:52:45;29.9;59.0
43414;DHT22;29013;49.676;8.606;2022-07-23T14:58:07;29.6;60.0
43414;DHT22;29013;49.676;8.606;2022-07-23T15:03:28;29.3;60.1
43414;DHT22;29013;49.676;8.606;2022-07-23T15:08:51;29.5;60.5
43414;DHT22;29013;49.676;8.606;2022-07-23T15:14:12;29.4;60.8
43414;DHT22;29013;49.676;8.606;2022-07-23T15:19:37;29.3;58.6
43414;DHT22;29013;49.676;8.606;2022-07-23T15:24:58;29.4;59.8
43414;DHT22;29013;49.676;8.606;2022-07-23T15:30:21;29.6;59.4
43414;DHT22;29013;49.676;8.606;2022-07-23T15:35:42;29.5;59.0
43414;DHT22;29013;49.676;8.606;2022-07-23T15:41:06;29.5;58.4
43414;DHT22;29013;49.676;8.606;2022-07-23T15:46:30;29.5;59.2
43414;DHT22;29013;49.676;8.606;2022-07-23T15:51:56;29.5;58.4
43414;DHT22;29013;49.676;8.606;2022-07-23T15:57:17;29.5;58.8
43414;DHT22;29013;49.676;8.606;2022-07-23T16:02:39;29.3;59.2
43414;DHT22;29013;49.676;8.606;2022-07-23T16:08:04;29.3;58.7
43414;DHT22;29013;49.676;8.606;2022-07-23T16:13:26;29.2;60.8
43414;DHT22;29013;49.676;8.606;2022-07-23T16:18:49;29.1;57.9
43414;DHT22;29013;49.676;8.606;2022-07-23T16:24:12;29.1;58.3
43414;DHT22;29013;49.676;8.606;2022-07-23T16:29:34;29.0;58.0
43414;DHT22;29013;49.676;8.606;2022-07-23T16:34:57;29.0;58.7
43414;DHT22;29013;49.676;8.606;2022-07-23T16:40:20;29.0;57.5
43414;DHT22;29013;49.676;8.606;2022-07-23T16:45:42;29.0;58.0
43414;DHT22;29013;49.676;8.606;2022-07-23T16:51:04;28.9;57.9
43414;DHT22;29013;49.676;8.606;2022-07-23T16:56:28;28.8;56.7
43414;DHT22;29013;49.676;8.606;2022-07-23T17:01:50;28.8;57.0
43414;DHT22;29013;49.676;8.606;2022-07-23T17:07:12;28.8;57.7
43414;DHT22;29013;49.676;8.606;2022-07-23T17:12:36;28.7;57.4
43414;DHT22;29013;49.676;8.606;2022-07-23T17:17:57;28.7;57.8
43414;DHT22;29013;49.676;8.606;2022-07-23T17:23:19;28.7;57.0
43414;DHT22;29013;49.676;8.606;2022-07-23T17:28:42;28.7;57.5
43414;DHT22;29013;49.676;8.606;2022-07-23T17:34:03;28.7;58.2
43414;DHT22;29013;49.676;8.606;2022-07-23T17:39:25;28.7;57.8
43414;DHT22;29013;49.676;8.606;2022-07-23T17:44:50;28.6;58.5
43414;DHT22;29013;49.676;8.606;2022-07-23T17:50:13;28.5;59.3
43414;DHT22;29013;49.676;8.606;2022-07-23T17:55:35;28.5;59.0
43414;DHT22;29013;49.676;8.606;2022-07-23T18:00:57;28.4;59.7
43414;DHT22;29013;49.676;8.606;2022-07-23T18:06:19;28.3;60.1
43414;DHT22;29013;49.676;8.606;2022-07-23T18:11:41;28.2;59.5
43414;DHT22;29013;49.676;8.606;2022-07-23T18:17:03;28.1;60.6
43414;DHT22;29013;49.676;8.606;2022-07-23T18:22:24;28.0;61.6
43414;DHT22;29013;49.676;8.606;2022-07-23T18:27:46;27.9;62.0
43414;DHT22;29013;49.676;8.606;2022-07-23T18:33:09;27.8;63.1
43414;DHT22;29013;49.676;8.606;2022-07-23T18:38:31;27.7;63.8
43414;DHT22;29013;49.676;8.606;2022-07-23T18:43:55;27.6;63.6
43414;DHT22;29013;49.676;8.606;2022-07-23T18:49:18;27.4;63.7
43414;DHT22;29013;49.676;8.606;2022-07-23T18:54:40;27.3;64.6
43414;DHT22;29013;49.676;8.606;2022-07-23T19:00:03;27.2;65.5
43414;DHT22;29013;49.676;8.606;2022-07-23T19:05:25;27.0;65.9
43414;DHT22;29013;49.676;8.606;2022-07-23T19:10:47;26.9;65.8
43414;DHT22;29013;49.676;8.606;2022-07-23T19:16:09;26.8;67.5
43414;DHT22;29013;49.676;8.606;2022-07-23T19:21:31;26.6;67.3
43414;DHT22;29013;49.676;8.606;2022-07-23T19:26:57;26.5;66.6
43414;DHT22;29013;49.676;8.606;2022-07-23T19:32:21;26.4;67.4
43414;DHT22;29013;49.676;8.606;2022-07-23T19:37:43;26.3;67.2
43414;DHT22;29013;49.676;8.606;2022-07-23T19:43:06;26.2;67.3
43414;DHT22;29013;49.676;8.606;2022-07-23T19:48:28;26.1;67.3
43414;DHT22;29013;49.676;8.606;2022-07-23T19:53:50;26.0;67.0
43414;DHT22;29013;49.676;8.606;2022-07-23T19:59:12;26.0;67.4
43414;DHT22;29013;49.676;8.606;2022-07-23T20:04:35;25.8;67.3
43414;DHT22;29013;49.676;8.606;2022-07-23T20:09:58;25.7;67.5
43414;DHT22;29013;49.676;8.606;2022-07-23T20:15:20;25.6;67.4
43414;DHT22;29013;49.676;8.606;2022-07-23T20:20:41;25.5;67.8
43414;DHT22;29013;49.676;8.606;2022-07-23T20:26:03;25.4;68.2
43414;DHT22;29013;49.676;8.606;2022-07-23T20:31:25;25.2;68.9
43414;DHT22;29013;49.676;8.606;2022-07-23T20:36:48;25.2;68.6
43414;DHT22;29013;49.676;8.606;2022-07-23T20:42:10;25.1;68.0
43414;DHT22;29013;49.676;8.606;2022-07-23T20:47:35;25.0;69.2
43414;DHT22;29013;49.676;8.606;2022-07-23T20:53:02;24.8;70.0
43414;DHT22;29013;49.676;8.606;2022-07-23T20:58:25;24.6;70.4
43414;DHT22;29013;49.676;8.606;2022-07-23T21:03:53;24.5;69.9
43414;DHT22;29013;49.676;8.606;2022-07-23T21:09:20;24.4;68.8
43414;DHT22;29013;49.676;8.606;2022-07-23T21:14:41;24.3;70.2
43414;DHT22;29013;49.676;8.606;2022-07-23T21:20:11;24.2;70.8
43414;DHT22;29013;49.676;8.606;2022-07-23T21:25:32;24.1;71.8
43414;DHT22;29013;49.676;8.606;2022-07-23T21:31:00;24.0;72.2
43414;DHT22;29013;49.676;8.606;2022-07-23T21:36:25;23.8;72.2
43414;DHT22;29013;49.676;8.606;2022-07-23T21:41:51;23.8;71.2
43414;DHT22;29013;49.676;8.606;2022-07-23T21:47:31;23.7;71.8
43414;DHT22;29013;49.676;8.606;2022-07-23T21:52:57;23.7;72.2
43414;DHT22;29013;49.676;8.606;2022-07-23T21:58:21;23.6;71.8
43414;DHT22;29013;49.676;8.606;2022-07-23T22:03:44;23.5;72.2
43414;DHT22;29013;49.676;8.606;2022-07-23T22:09:11;23.2;73.9
43414;DHT22;29013;49.676;8.606;2022-07-23T22:14:40;23.1;73.9
43414;DHT22;29013;49.676;8.606;2022-07-23T22:20:19;23.1;72.9
43414;DHT22;29013;49.676;8.606;2022-07-23T22:25:44;23.2;73.0
43414;DHT22;29013;49.676;8.606;2022-07-23T22:31:12;23.2;72.0
43414;DHT22;29013;49.676;8.606;2022-07-23T22:36:38;23.2;72.0
43414;DHT22;29013;49.676;8.606;2022-07-23T22:42:02;23.2;72.6
43414;DHT22;29013;49.676;8.606;2022-07-23T22:47:28;23.2;72.4
43414;DHT22;29013;49.676;8.606;2022-07-23T22:52:53;23.1;74.4
43414;DHT22;29013;49.676;8.606;2022-07-23T22:58:19;23.0;74.9
43414;DHT22;29013;49.676;8.606;2022-07-23T23:03:43;22.9;75.4
43414;DHT22;29013;49.676;8.606;2022-07-23T23:09:04;22.9;74.9
43414;DHT22;29013;49.676;8.606;2022-07-23T23:14:27;22.7;76.0
43414;DHT22;29013;49.676;8.606;2022-07-23T23:19:50;22.7;75.7
43414;DHT22;29013;49.676;8.606;2022-07-23T23:26:11;22.7;76.9
43414;DHT22;29013;49.676;8.606;2022-07-23T23:31:35;23.0;76.4
43414;DHT22;29013;49.676;8.606;2022-07-23T23:37:06;22.9;76.2
43414;DHT22;29013;49.676;8.606;2022-07-23T23:42:30;22.7;76.1
43414;DHT22;29013;49.676;8.606;2022-07-23T23:47:58;22.4;77.5
43414;DHT22;29013;49.676;8.606;2022-07-23T23:53:25;22.3;78.0
43414;DHT22;29013;49.676;8.606;2022-07-23T23:58:54;22.2;79.5
